Accueil
METAR-TAF:

METAR-TAF

Aéroports :

Camdenton, Missouri, États-Unis

latitude: 37-58-26N, longitude: 092-41-28W, altitude: 324 m

Observation

Le bulletin a été fait il y a 24 minutes, à 21:55 UTC
Vent 10 kt de sud-est
Température 18°C
Humidité 37%
Pression 1014 hPa
Visibilité: 16.1 km
Ciel clair

METAR: KOZS 202155Z AUTO 13010KT 10SM CLR 18/03 A2995 RMK AO2

Heure: 16:19 (22:19 UTC)


TAF: absent

Observations et prévisions météorologiques de plus de 4000 aéroports (messages METAR et TAF).

Les stations disponibles sont représentées par des disques jaunes et rouges sur la carte.

Passer la souris dessus pour voir le nom de la station.

Cliquer dessus pour voir les observations et prévisions météorologiques.

Pour changer de carte: cliquez sur les boutons verts avec une croix noire pour zoomer, sur le bouton vert avec un tiret pour effectuer un zoom arrière, ou sur les flèches vertes pour les cartes adjacentes.


METAR-TAF: